createdAt,value
2018-11-20T00:00:58.957Z,68.30
2018-11-20T00:04:07.106Z,68.30
2018-11-20T00:07:31.812Z,68.30
2018-11-20T00:10:38.217Z,68.30
2018-11-20T00:13:45.532Z,68.30
2018-11-20T00:16:52.926Z,68.20
2018-11-20T00:20:00.350Z,68.20
2018-11-20T00:26:18.022Z,68.30
2018-11-20T00:29:25.388Z,68.30
2018-11-20T00:32:32.814Z,68.30
2018-11-20T00:35:40.210Z,68.30
2018-11-20T00:38:47.563Z,68.20
2018-11-20T00:41:54.971Z,68.20
2018-11-20T00:45:02.372Z,68.40
2018-11-20T00:48:09.714Z,68.20
2018-11-20T00:51:17.155Z,68.50
2018-11-20T00:54:24.715Z,68.20
2018-11-20T00:57:32.060Z,68.20
2018-11-20T01:00:39.473Z,68.20
2018-11-20T01:03:48.180Z,68.20
2018-11-20T01:06:55.503Z,68.20
2018-11-20T01:10:02.809Z,68.20
2018-11-20T01:13:10.213Z,68.20
2018-11-20T01:16:17.559Z,68.20
2018-11-20T01:19:24.899Z,68.20
2018-11-20T01:22:33.579Z,68.20
2018-11-20T01:25:22.011Z,68.20
2018-11-20T01:28:29.807Z,68.20
2018-11-20T01:31:37.234Z,68.20
2018-11-20T01:34:44.648Z,68.20
2018-11-20T01:37:52.047Z,68.10
2018-11-20T01:40:59.357Z,67.90
2018-11-20T01:43:47.724Z,68.10
2018-11-20T01:46:45.358Z,68.10
2018-11-20T01:49:52.670Z,68.10
2018-11-20T01:53:00.373Z,68.10
2018-11-20T01:56:07.711Z,68.00
2018-11-20T01:59:15.127Z,68.10
2018-11-20T02:02:22.470Z,67.70
2018-11-20T02:08:18.683Z,68.00
2018-11-20T02:11:25.996Z,67.90
2018-11-20T02:14:34.411Z,67.80
2018-11-20T02:17:52.770Z,67.60
2018-11-20T02:24:37.417Z,67.40
2018-11-20T02:30:33.530Z,67.60
2018-11-20T02:33:40.935Z,68.10
2018-11-20T02:36:48.308Z,68.10
2018-11-20T02:39:55.636Z,67.60
2018-11-20T02:43:03.019Z,67.70
2018-11-20T02:46:10.508Z,67.60
2018-11-20T02:49:17.821Z,68.00
2018-11-20T02:52:24.253Z,67.60
2018-11-20T02:55:31.654Z,67.70
2018-11-20T02:58:28.003Z,67.60
2018-11-20T03:01:35.407Z,68.00
2018-11-20T03:04:23.302Z,67.70
2018-11-20T03:07:11.650Z,67.90
2018-11-20T03:10:18.991Z,68.10
2018-11-20T03:13:18.809Z,68.00
2018-11-20T03:16:07.167Z,68.10
2018-11-20T03:19:14.859Z,67.90
2018-11-20T03:22:22.167Z,68.00
2018-11-20T03:25:48.498Z,68.00
2018-11-20T03:28:37.303Z,68.00
2018-11-20T03:31:35.954Z,68.10
2018-11-20T03:34:43.365Z,68.00
2018-11-20T03:40:20.268Z,68.00
2018-11-20T03:43:27.585Z,68.00
2018-11-20T03:46:15.941Z,68.10
2018-11-20T03:49:23.324Z,68.00
2018-11-20T03:52:30.719Z,68.00
2018-11-20T03:55:38.179Z,68.10
2018-11-20T03:58:45.563Z,68.10
2018-11-20T04:01:52.893Z,68.30
2018-11-20T04:04:52.815Z,68.80
2018-11-20T04:07:52.454Z,68.00
2018-11-20T04:10:52.444Z,68.20
2018-11-20T04:13:52.113Z,68.70
2018-11-20T04:16:43.955Z,68.70
2018-11-20T04:19:43.648Z,68.20
2018-11-20T04:22:43.669Z,68.80
2018-11-20T04:25:35.829Z,68.40
2018-11-20T04:28:26.197Z,68.70
2018-11-20T04:31:26.036Z,68.80
2018-11-20T04:34:26.058Z,68.80
2018-11-20T04:37:25.933Z,68.50
2018-11-20T04:43:44.414Z,69.10
2018-11-20T04:46:44.352Z,69.30
2018-11-20T04:49:35.108Z,69.40
2018-11-20T04:52:37.970Z,69.30
2018-11-20T04:55:37.837Z,69.40
2018-11-20T04:58:37.965Z,69.20
2018-11-20T05:01:38.447Z,69.40
2018-11-20T05:04:38.182Z,69.40
2018-11-20T05:07:40.826Z,69.30
2018-11-20T05:10:41.104Z,69.30
2018-11-20T05:13:44.237Z,69.20
2018-11-20T05:16:42.276Z,69.20
2018-11-20T05:22:48.992Z,69.30
2018-11-20T05:29:06.631Z,69.40
2018-11-20T05:32:06.974Z,69.40
2018-11-20T05:35:06.789Z,69.50
2018-11-20T05:38:06.786Z,69.50
2018-11-20T05:44:25.898Z,70.10
2018-11-20T05:50:43.964Z,70.00
2018-11-20T05:53:46.799Z,70.50
2018-11-20T05:56:34.503Z,70.60
2018-11-20T05:59:34.537Z,70.60
2018-11-20T06:02:34.076Z,70.70
2018-11-20T06:05:40.022Z,70.90
2018-11-20T06:08:39.806Z,71.00
2018-11-20T06:11:39.523Z,71.00
2018-11-20T06:17:43.488Z,71.30
2018-11-20T06:20:43.655Z,71.30
2018-11-20T06:23:43.431Z,71.30
2018-11-20T06:26:43.259Z,71.40
2018-11-20T06:29:42.877Z,71.30
2018-11-20T06:32:42.791Z,71.20
2018-11-20T06:38:41.670Z,71.30
2018-11-20T06:41:41.836Z,71.80
2018-11-20T06:44:42.040Z,71.90
2018-11-20T06:47:41.855Z,72.10
2018-11-20T06:50:44.784Z,72.10
2018-11-20T06:53:45.017Z,72.10
2018-11-20T06:56:45.296Z,72.90
2018-11-20T06:59:45.395Z,72.00
2018-11-20T07:02:44.614Z,72.00
2018-11-20T07:05:33.394Z,72.30
2018-11-20T07:08:40.735Z,72.30
2018-11-20T07:11:48.103Z,72.70
2018-11-20T07:18:40.274Z,72.80
2018-11-20T07:21:37.777Z,72.80
2018-11-20T07:24:45.103Z,72.80
2018-11-20T07:27:52.420Z,73.10
2018-11-20T07:30:59.868Z,72.90
2018-11-20T07:34:07.143Z,73.00
2018-11-20T07:37:14.672Z,73.40
2018-11-20T07:40:21.859Z,73.10
2018-11-20T07:43:29.196Z,73.10
2018-11-20T07:46:36.952Z,73.20
2018-11-20T07:49:44.263Z,73.50
2018-11-20T07:52:47.079Z,73.20
2018-11-20T07:59:03.986Z,73.20
2018-11-20T08:02:11.446Z,73.20
2018-11-20T08:05:17.939Z,73.40
2018-11-20T08:08:25.377Z,73.50
2018-11-20T08:11:32.667Z,73.50
2018-11-20T08:14:39.975Z,73.20
2018-11-20T08:17:45.842Z,73.50
2018-11-20T08:20:53.250Z,73.00
2018-11-20T08:24:00.643Z,73.20
2018-11-20T08:26:59.638Z,73.00
2018-11-20T08:30:06.973Z,73.50
2018-11-20T08:33:14.308Z,73.20
2018-11-20T08:36:21.705Z,73.30
2018-11-20T08:39:29.029Z,73.40
2018-11-20T08:42:36.423Z,73.00
2018-11-20T08:45:24.953Z,73.20
2018-11-20T08:48:32.423Z,73.00
2018-11-20T08:51:39.682Z,73.90
2018-11-20T08:54:47.035Z,73.20
2018-11-20T08:57:54.443Z,72.70
2018-11-20T09:00:42.834Z,72.60
2018-11-20T09:03:50.149Z,72.70
2018-11-20T09:06:57.833Z,72.30
2018-11-20T09:10:05.299Z,72.40
2018-11-20T09:13:08.412Z,72.10
2018-11-20T09:16:15.873Z,72.30
2018-11-20T09:19:23.303Z,72.10
2018-11-20T09:22:11.796Z,72.10
2018-11-20T09:25:15.573Z,71.90
2018-11-20T09:28:23.130Z,71.80
2018-11-20T09:31:11.836Z,72.00
2018-11-20T09:34:19.262Z,72.30
2018-11-20T09:37:26.659Z,72.00
2018-11-20T09:40:53.013Z,71.70
2018-11-20T09:43:43.125Z,71.70
2018-11-20T09:46:52.816Z,71.00
2018-11-20T09:50:00.161Z,70.70
2018-11-20T09:53:07.849Z,70.50
2018-11-20T09:56:15.188Z,70.50
2018-11-20T09:59:22.796Z,70.30
2018-11-20T10:02:30.402Z,70.00
2018-11-20T10:05:37.703Z,69.60
2018-11-20T10:08:45.111Z,69.90
2018-11-20T10:11:52.450Z,70.00
2018-11-20T10:14:40.802Z,70.30
2018-11-20T10:17:48.110Z,70.00
2018-11-20T10:20:55.841Z,70.20
2018-11-20T10:24:03.307Z,70.00
2018-11-20T10:27:10.702Z,70.00
2018-11-20T10:29:59.507Z,69.40
2018-11-20T10:33:06.951Z,69.40
2018-11-20T10:36:34.600Z,69.40
2018-11-20T10:39:36.523Z,69.40
2018-11-20T10:42:25.742Z,69.50
2018-11-20T10:45:33.157Z,69.50
2018-11-20T10:48:40.468Z,69.60
2018-11-20T10:51:47.991Z,69.60
2018-11-20T10:54:44.307Z,69.60
2018-11-20T10:57:59.324Z,69.60
2018-11-20T11:01:06.704Z,69.70
2018-11-20T11:04:14.411Z,69.70
2018-11-20T11:07:21.754Z,69.70
2018-11-20T11:10:29.104Z,69.50
2018-11-20T11:16:43.119Z,69.90
2018-11-20T11:19:50.530Z,70.00
2018-11-20T11:23:00.347Z,69.60
2018-11-20T11:26:05.700Z,69.30
2018-11-20T11:32:20.237Z,70.00
2018-11-20T11:35:08.627Z,69.40
2018-11-20T11:38:16.047Z,69.40
2018-11-20T11:41:40.999Z,69.50
2018-11-20T11:44:48.380Z,69.20
2018-11-20T11:47:55.702Z,69.80
2018-11-20T11:51:03.075Z,70.20
2018-11-20T11:54:10.479Z,70.30
2018-11-20T11:57:17.860Z,70.30
2018-11-20T12:00:06.751Z,70.30
2018-11-20T12:03:14.567Z,70.30
2018-11-20T12:06:17.008Z,70.30
2018-11-20T12:09:28.425Z,70.30
2018-11-20T12:12:35.740Z,70.30
2018-11-20T12:15:43.146Z,70.30
2018-11-20T12:18:50.830Z,70.30
2018-11-20T12:21:58.156Z,70.30
2018-11-20T12:25:05.869Z,70.60
2018-11-20T12:28:14.704Z,70.40
2018-11-20T12:31:20.850Z,70.40
2018-11-20T12:34:28.179Z,70.50
2018-11-20T12:37:35.511Z,70.40
2018-11-20T12:40:42.895Z,70.70
2018-11-20T12:46:38.990Z,71.00
2018-11-20T12:49:46.643Z,71.10
2018-11-20T12:52:53.981Z,71.40
2018-11-20T12:56:01.367Z,71.30
2018-11-20T12:59:08.662Z,71.60
2018-11-20T13:01:56.582Z,71.40
2018-11-20T13:05:03.974Z,70.90
2018-11-20T13:07:52.665Z,71.60
2018-11-20T13:11:00.696Z,71.00
2018-11-20T13:14:26.245Z,71.30
2018-11-20T13:17:35.836Z,71.20
2018-11-20T13:20:41.041Z,71.10
2018-11-20T13:23:50.973Z,71.50
2018-11-20T13:26:58.943Z,71.50
2018-11-20T13:30:06.231Z,72.10
2018-11-20T13:33:14.006Z,71.20
2018-11-20T13:36:20.933Z,71.70
2018-11-20T13:39:21.398Z,70.90
2018-11-20T13:42:31.844Z,71.20
2018-11-20T13:45:29.429Z,71.30
2018-11-20T13:48:36.730Z,71.00
2018-11-20T13:51:44.066Z,71.50
2018-11-20T13:54:32.442Z,71.20
2018-11-20T13:57:39.758Z,71.60
2018-11-20T14:00:47.108Z,71.40
2018-11-20T14:03:54.471Z,72.00
2018-11-20T14:07:01.798Z,72.30
2018-11-20T14:10:09.166Z,72.50
2018-11-20T14:13:16.577Z,72.90
2018-11-20T14:16:24.001Z,73.10
2018-11-20T14:19:23.904Z,73.20
2018-11-20T14:22:31.266Z,73.30
2018-11-20T14:25:30.256Z,73.10
2018-11-20T14:28:25.918Z,73.20
2018-11-20T14:31:33.557Z,73.10
2018-11-20T14:34:40.989Z,73.50
2018-11-20T14:37:48.323Z,73.30
2018-11-20T14:40:55.652Z,73.10
2018-11-20T14:44:03.045Z,73.40
2018-11-20T14:47:10.433Z,73.00
2018-11-20T14:50:17.752Z,73.00
2018-11-20T14:53:25.068Z,72.90
2018-11-20T14:56:32.379Z,73.00
2018-11-20T14:59:39.767Z,73.40
2018-11-20T15:02:47.050Z,72.70
2018-11-20T15:05:54.371Z,72.70
2018-11-20T15:09:01.678Z,72.60
2018-11-20T15:12:08.963Z,72.60
2018-11-20T15:15:17.715Z,72.70
2018-11-20T15:18:25.209Z,73.20
2018-11-20T15:24:42.218Z,73.30
2018-11-20T15:27:49.574Z,73.10
2018-11-20T15:30:55.305Z,73.70
2018-11-20T15:34:04.373Z,73.30
2018-11-20T15:37:11.670Z,73.60
2018-11-20T15:40:20.555Z,74.00
2018-11-20T15:43:27.840Z,74.00
2018-11-20T15:46:35.172Z,74.30
2018-11-20T15:49:42.512Z,74.30
2018-11-20T15:52:49.832Z,74.50
2018-11-20T15:55:57.154Z,74.40
2018-11-20T15:59:04.472Z,74.50
2018-11-20T16:02:11.830Z,74.90
2018-11-20T16:05:19.152Z,75.10
2018-11-20T16:14:45.975Z,75.10
2018-11-20T16:17:53.348Z,74.70
2018-11-20T16:21:00.661Z,74.00
2018-11-20T16:24:07.959Z,74.70
2018-11-20T16:27:15.274Z,75.00
2018-11-20T16:30:22.586Z,75.40
2018-11-20T16:33:29.959Z,76.40
2018-11-20T16:36:37.274Z,75.30
2018-11-20T16:39:44.584Z,75.50
2018-11-20T16:42:51.907Z,76.30
2018-11-20T16:45:59.217Z,76.30
2018-11-20T16:49:06.835Z,76.80
2018-11-20T16:52:14.170Z,76.80
2018-11-20T16:55:21.554Z,76.30
2018-11-20T16:58:28.843Z,75.90
2018-11-20T17:01:36.165Z,76.50
2018-11-20T17:04:43.460Z,76.50
2018-11-20T17:07:54.189Z,76.60
2018-11-20T17:10:38.384Z,76.50
2018-11-20T17:13:45.780Z,77.40
2018-11-20T17:16:53.097Z,76.90
2018-11-20T17:20:00.712Z,77.10
2018-11-20T17:23:08.328Z,77.00
2018-11-20T17:26:15.365Z,77.00
2018-11-20T17:29:22.664Z,77.00
2018-11-20T17:32:21.507Z,77.70
2018-11-20T17:35:28.786Z,78.40
2018-11-20T17:38:36.117Z,78.50
2018-11-20T17:41:43.445Z,78.80
2018-11-20T17:44:31.845Z,79.20
2018-11-20T17:47:39.235Z,79.30
2018-11-20T17:50:46.567Z,79.40
2018-11-20T17:53:43.570Z,80.20
2018-11-20T17:56:50.914Z,80.40
2018-11-20T17:59:49.119Z,80.50
2018-11-20T18:02:56.497Z,81.70
2018-11-20T18:06:03.814Z,81.70
2018-11-20T18:09:11.138Z,82.00
2018-11-20T18:12:18.440Z,82.30
2018-11-20T18:15:26.400Z,83.00
2018-11-20T18:18:33.743Z,84.00
2018-11-20T18:21:41.155Z,84.70
2018-11-20T18:24:48.480Z,85.20
2018-11-20T18:27:49.343Z,85.30
2018-11-20T18:34:06.235Z,86.20
2018-11-20T18:37:13.522Z,86.50
2018-11-20T18:40:20.916Z,86.30
2018-11-20T18:43:22.746Z,86.10
2018-11-20T18:46:30.051Z,84.10
2018-11-20T18:49:37.446Z,84.20
2018-11-20T18:52:44.768Z,83.90
2018-11-20T18:55:52.224Z,83.20
2018-11-20T18:59:01.192Z,83.20
2018-11-20T19:02:08.500Z,83.00
2018-11-20T19:05:15.813Z,82.10
2018-11-20T19:08:23.272Z,81.90
2018-11-20T19:11:30.884Z,82.30
2018-11-20T19:14:38.194Z,82.40
2018-11-20T19:17:45.833Z,82.80
2018-11-20T19:20:53.150Z,83.10
2018-11-20T19:27:25.540Z,83.40
2018-11-20T19:30:13.169Z,83.70
2018-11-20T19:33:20.487Z,83.90
2018-11-20T19:36:27.981Z,85.20
2018-11-20T19:39:55.722Z,84.50
2018-11-20T19:42:54.368Z,83.70
2018-11-20T19:46:02.048Z,85.10
2018-11-20T19:49:09.358Z,85.70
2018-11-20T19:52:16.659Z,86.50
2018-11-20T19:58:15.425Z,87.00
2018-11-20T20:01:22.753Z,87.40
2018-11-20T20:04:30.065Z,87.90
2018-11-20T20:11:07.982Z,88.30
2018-11-20T20:14:15.282Z,88.60
2018-11-20T20:17:22.607Z,88.70
2018-11-20T20:27:11.651Z,89.80
2018-11-20T20:30:18.936Z,90.10
2018-11-20T20:33:26.254Z,90.10
2018-11-20T20:36:27.918Z,90.10
2018-11-20T20:39:35.201Z,90.30
2018-11-20T20:42:42.511Z,90.40
2018-11-20T20:45:50.197Z,90.50
2018-11-20T20:48:57.538Z,90.70
2018-11-20T20:51:59.153Z,90.80
2018-11-20T20:55:06.448Z,91.00
2018-11-20T20:58:13.781Z,91.00
2018-11-20T21:05:05.079Z,91.10
2018-11-20T21:08:12.387Z,91.50
2018-11-20T21:11:14.115Z,91.60
2018-11-20T21:14:21.427Z,91.80
2018-11-20T21:17:28.839Z,92.00
2018-11-20T21:20:36.175Z,92.50
2018-11-20T21:23:43.502Z,92.50
2018-11-20T21:26:50.786Z,92.30
2018-11-20T21:29:58.092Z,92.40
2018-11-20T21:33:05.413Z,92.30
2018-11-20T21:36:12.711Z,92.30
2018-11-20T21:39:20.037Z,92.20
2018-11-20T21:42:27.320Z,92.20
2018-11-20T21:45:34.697Z,92.10
2018-11-20T21:48:42.363Z,92.00
2018-11-20T21:51:49.654Z,92.20
2018-11-20T21:54:56.977Z,92.40
2018-11-20T21:58:04.411Z,92.40
2018-11-20T22:01:13.226Z,92.50
2018-11-20T22:04:20.640Z,92.70
2018-11-20T22:07:27.921Z,92.80
2018-11-20T22:10:35.232Z,92.80
2018-11-20T22:13:42.555Z,93.00
2018-11-20T22:19:59.474Z,93.10
2018-11-20T22:23:06.860Z,93.10
2018-11-20T22:26:14.182Z,93.20
2018-11-20T22:29:21.521Z,93.10
2018-11-20T22:32:28.803Z,93.60
2018-11-20T22:35:36.112Z,93.60
2018-11-20T22:38:43.486Z,93.30
2018-11-20T22:41:50.799Z,93.20
2018-11-20T22:44:58.171Z,93.40
2018-11-20T22:48:05.484Z,93.60
2018-11-20T22:51:12.811Z,93.90
2018-11-20T22:53:50.325Z,94.00
2018-11-20T22:56:57.684Z,94.00
2018-11-20T23:00:05.333Z,93.90
2018-11-20T23:03:12.615Z,94.00
2018-11-20T23:06:19.144Z,94.00
2018-11-20T23:09:10.089Z,94.00
2018-11-20T23:11:58.658Z,94.10
2018-11-20T23:14:47.322Z,94.10
2018-11-20T23:17:35.893Z,94.10
2018-11-20T23:20:24.503Z,94.30
2018-11-20T23:23:13.084Z,94.40
2018-11-20T23:26:01.711Z,94.50
2018-11-20T23:28:50.281Z,94.70
2018-11-20T23:31:38.899Z,94.90
2018-11-20T23:37:16.321Z,95.90
2018-11-20T23:40:05.258Z,95.30
2018-11-20T23:42:53.865Z,95.10
2018-11-20T23:45:42.462Z,94.80
2018-11-20T23:48:31.118Z,94.50
2018-11-20T23:51:19.712Z,94.90
2018-11-20T23:56:57.088Z,95.50
2018-11-20T23:59:45.675Z,95.30
